createdAt,value
2019-02-25T00:07:57.028Z,4.07
2019-02-25T00:09:05.487Z,4.37
2019-02-25T00:10:14.661Z,5.07
2019-02-25T00:11:21.947Z,4.63
2019-02-25T00:12:29.275Z,4.83
2019-02-25T00:13:36.638Z,4.80
2019-02-25T00:14:43.847Z,4.90
2019-02-25T00:15:51.158Z,4.57
2019-02-25T00:16:58.469Z,5.23
2019-02-25T00:18:05.782Z,4.63
2019-02-25T00:19:13.153Z,5.00
2019-02-25T00:20:20.458Z,4.77
2019-02-25T00:21:27.770Z,4.87
2019-02-25T00:22:35.100Z,4.77
2019-02-25T00:23:42.415Z,4.63
2019-02-25T00:24:49.720Z,5.13
2019-02-25T00:25:57.032Z,5.13
2019-02-25T00:27:04.349Z,4.27
2019-02-25T00:28:11.671Z,4.57
2019-02-25T00:29:19.012Z,4.73
2019-02-25T00:30:26.300Z,5.20
2019-02-25T00:31:33.607Z,4.47
2019-02-25T00:32:40.853Z,4.67
2019-02-25T00:33:48.183Z,4.30
2019-02-25T00:34:55.436Z,4.30
2019-02-25T00:36:02.773Z,4.33
2019-02-25T00:37:10.102Z,4.17
2019-02-25T00:38:17.429Z,3.90
2019-02-25T00:39:24.732Z,4.67
2019-02-25T00:40:35.780Z,4.43
2019-02-25T00:41:43.367Z,4.17
2019-02-25T00:42:50.668Z,4.67
2019-02-25T00:43:57.986Z,4.17
2019-02-25T00:45:05.793Z,4.20
2019-02-25T00:46:13.169Z,4.00
2019-02-25T00:47:23.563Z,4.57
2019-02-25T00:48:30.907Z,4.00
2019-02-25T00:49:38.223Z,4.50
2019-02-25T00:50:45.492Z,4.03
2019-02-25T00:51:52.779Z,4.27
2019-02-25T00:53:00.140Z,4.83
2019-02-25T00:54:07.455Z,4.07
2019-02-25T00:55:15.818Z,4.20
2019-02-25T00:56:23.058Z,4.67
2019-02-25T00:57:30.349Z,4.47
2019-02-25T00:58:37.686Z,4.83
2019-02-25T00:59:46.358Z,4.97
2019-02-25T01:00:53.688Z,4.63
2019-02-25T01:02:01.063Z,4.73
2019-02-25T01:03:08.304Z,4.43
2019-02-25T01:04:15.633Z,4.10
2019-02-25T01:05:23.039Z,4.00
2019-02-25T01:06:30.341Z,4.47
2019-02-25T01:07:37.566Z,4.33
2019-02-25T01:08:44.891Z,4.20
2019-02-25T01:09:52.226Z,4.63
2019-02-25T01:10:59.555Z,3.83
2019-02-25T01:12:07.247Z,4.00
2019-02-25T01:13:14.535Z,3.67
2019-02-25T01:14:21.838Z,4.60
2019-02-25T01:15:29.137Z,4.90
2019-02-25T01:16:36.464Z,3.93
2019-02-25T01:17:43.768Z,4.10
2019-02-25T01:18:52.160Z,4.07
2019-02-25T01:19:59.482Z,3.87
2019-02-25T01:21:06.780Z,3.90
2019-02-25T01:22:14.118Z,4.00
2019-02-25T01:23:21.424Z,4.43
2019-02-25T01:24:28.724Z,3.87
2019-02-25T01:25:36.041Z,4.03
2019-02-25T01:26:43.356Z,3.83
2019-02-25T01:27:50.687Z,4.53
2019-02-25T01:28:57.989Z,4.00
2019-02-25T01:30:06.935Z,3.83
2019-02-25T01:31:14.238Z,4.27
2019-02-25T01:32:21.557Z,4.37
2019-02-25T01:33:28.890Z,4.30
2019-02-25T01:34:36.225Z,4.03
2019-02-25T01:35:44.000Z,4.23
2019-02-25T01:36:51.327Z,4.00
2019-02-25T01:37:58.637Z,4.10
2019-02-25T01:39:09.017Z,4.13
2019-02-25T01:40:16.425Z,4.43
2019-02-25T01:41:23.752Z,4.23
2019-02-25T01:42:31.008Z,4.30
2019-02-25T01:43:38.357Z,4.23
2019-02-25T01:44:45.670Z,4.37
2019-02-25T01:45:53.004Z,3.57
2019-02-25T01:47:00.335Z,3.93
2019-02-25T01:48:07.721Z,3.67
2019-02-25T01:49:14.981Z,4.20
2019-02-25T01:50:22.313Z,4.10
2019-02-25T01:51:29.638Z,4.10
2019-02-25T01:52:36.971Z,3.97
2019-02-25T01:53:44.224Z,4.13
2019-02-25T01:54:51.542Z,3.73
2019-02-25T01:55:59.860Z,4.00
2019-02-25T01:57:07.222Z,3.73
2019-02-25T01:58:14.462Z,4.10
2019-02-25T01:59:21.807Z,3.87
2019-02-25T02:00:29.111Z,4.00
2019-02-25T02:01:36.442Z,4.27
2019-02-25T02:02:43.800Z,3.40
2019-02-25T02:03:51.056Z,3.80
2019-02-25T02:04:58.385Z,3.77
2019-02-25T02:06:05.701Z,4.23
2019-02-25T02:07:13.002Z,4.10
2019-02-25T02:08:20.333Z,3.83
2019-02-25T02:09:27.618Z,3.67
2019-02-25T02:10:34.968Z,3.30
2019-02-25T02:11:42.278Z,3.60
2019-02-25T02:12:49.611Z,3.73
2019-02-25T02:13:56.924Z,3.03
2019-02-25T02:15:04.690Z,3.40
2019-02-25T02:16:11.948Z,3.37
2019-02-25T02:17:19.277Z,3.83
2019-02-25T02:18:26.582Z,3.57
2019-02-25T02:19:33.928Z,3.00
2019-02-25T02:20:41.274Z,3.40
2019-02-25T02:21:48.593Z,3.13
2019-02-25T02:22:55.858Z,3.40
2019-02-25T02:24:03.107Z,3.27
2019-02-25T02:25:11.367Z,3.30
2019-02-25T02:26:18.690Z,3.10
2019-02-25T02:27:25.929Z,3.27
2019-02-25T02:28:33.228Z,3.43
2019-02-25T02:29:40.544Z,3.03
2019-02-25T02:30:47.863Z,3.60
2019-02-25T02:31:56.198Z,3.50
2019-02-25T02:33:03.557Z,3.73
2019-02-25T02:34:10.874Z,3.67
2019-02-25T02:35:18.198Z,4.00
2019-02-25T02:36:25.533Z,3.87
2019-02-25T02:37:32.834Z,3.67
2019-02-25T02:38:40.180Z,3.40
2019-02-25T02:39:47.470Z,3.30
2019-02-25T02:40:54.781Z,3.63
2019-02-25T02:42:18.174Z,3.10
2019-02-25T02:43:25.526Z,3.20
2019-02-25T02:44:32.810Z,3.37
2019-02-25T02:45:52.878Z,3.40
2019-02-25T02:47:43.162Z,3.03
2019-02-25T02:48:58.974Z,3.13
2019-02-25T02:50:09.391Z,2.67
2019-02-25T02:51:17.694Z,3.00
2019-02-25T02:52:24.984Z,3.00
2019-02-25T02:53:32.312Z,3.10
2019-02-25T02:54:39.601Z,3.27
2019-02-25T02:55:46.886Z,3.10
2019-02-25T02:56:54.242Z,2.87
2019-02-25T02:58:01.578Z,3.13
2019-02-25T02:59:08.877Z,3.17
2019-02-25T03:00:18.696Z,3.50
2019-02-25T03:01:26.027Z,3.60
2019-02-25T03:02:33.313Z,2.83
2019-02-25T03:03:40.641Z,3.37
2019-02-25T03:04:47.942Z,3.47
2019-02-25T03:05:55.233Z,3.77
2019-02-25T03:07:03.055Z,3.30
2019-02-25T03:08:10.337Z,3.13
2019-02-25T03:09:17.656Z,3.30
2019-02-25T03:10:24.955Z,3.03
2019-02-25T03:11:33.469Z,3.13
2019-02-25T03:12:40.771Z,3.10
2019-02-25T03:13:48.072Z,3.43
2019-02-25T03:14:55.371Z,3.40
2019-02-25T03:16:02.683Z,3.00
2019-02-25T03:17:10.004Z,3.10
2019-02-25T03:18:17.351Z,3.30
2019-02-25T03:19:24.753Z,3.37
2019-02-25T03:20:32.179Z,3.77
2019-02-25T03:21:39.520Z,3.20
2019-02-25T03:22:46.837Z,3.77
2019-02-25T03:23:54.178Z,3.27
2019-02-25T03:25:01.512Z,3.20
2019-02-25T03:26:08.894Z,3.53
2019-02-25T03:27:16.209Z,3.30
2019-02-25T03:28:23.508Z,3.60
2019-02-25T03:29:30.840Z,3.77
2019-02-25T03:30:38.183Z,3.17
2019-02-25T03:31:45.499Z,3.10
2019-02-25T03:32:52.920Z,3.67
2019-02-25T03:34:00.235Z,4.03
2019-02-25T03:35:07.595Z,3.13
2019-02-25T03:36:14.942Z,3.40
2019-02-25T03:37:22.241Z,3.03
2019-02-25T03:38:29.581Z,3.00
2019-02-25T03:39:36.920Z,3.33
2019-02-25T03:40:44.222Z,3.50
2019-02-25T03:41:51.535Z,3.33
2019-02-25T03:42:58.803Z,3.03
2019-02-25T03:44:06.119Z,3.40
2019-02-25T03:45:15.555Z,3.40
2019-02-25T03:46:22.806Z,3.77
2019-02-25T03:47:30.208Z,3.03
2019-02-25T03:48:37.497Z,2.90
2019-02-25T03:49:44.662Z,3.27
2019-02-25T03:50:51.966Z,3.33
2019-02-25T03:51:59.282Z,3.00
2019-02-25T03:53:06.643Z,2.60
2019-02-25T03:54:13.944Z,3.00
2019-02-25T03:55:21.411Z,3.20
2019-02-25T03:56:28.633Z,3.53
2019-02-25T03:57:36.193Z,2.97
2019-02-25T03:58:43.583Z,3.20
2019-02-25T03:59:50.908Z,2.90
2019-02-25T04:00:58.540Z,2.90
2019-02-25T04:02:05.857Z,3.30
2019-02-25T04:03:13.188Z,3.00
2019-02-25T04:04:21.035Z,3.27
2019-02-25T04:05:28.378Z,2.80
2019-02-25T04:06:35.716Z,2.90
2019-02-25T04:07:43.053Z,3.20
2019-02-25T04:08:50.398Z,3.00
2019-02-25T04:09:59.404Z,3.00
2019-02-25T04:11:06.735Z,2.90
2019-02-25T04:12:14.050Z,3.27
2019-02-25T04:13:21.336Z,3.10
2019-02-25T04:14:28.654Z,2.93
2019-02-25T04:15:39.121Z,2.93
2019-02-25T04:16:46.479Z,2.80
2019-02-25T04:17:53.795Z,2.73
2019-02-25T04:19:01.424Z,3.07
2019-02-25T04:20:11.696Z,2.70
2019-02-25T04:21:19.970Z,2.73
2019-02-25T04:22:27.286Z,2.60
2019-02-25T04:23:35.712Z,2.87
2019-02-25T04:24:43.062Z,2.63
2019-02-25T04:25:50.388Z,2.67
2019-02-25T04:26:57.750Z,2.70
2019-02-25T04:28:05.066Z,2.57
2019-02-25T04:29:12.410Z,3.20
2019-02-25T04:30:19.754Z,3.57
2019-02-25T04:31:27.085Z,3.40
2019-02-25T04:32:36.751Z,3.23
2019-02-25T04:33:44.096Z,3.07
2019-02-25T04:34:51.343Z,3.20
2019-02-25T04:35:58.674Z,3.67
2019-02-25T04:37:07.083Z,3.70
2019-02-25T04:38:14.344Z,3.57
2019-02-25T04:39:21.656Z,3.60
2019-02-25T04:40:29.009Z,3.70
2019-02-25T04:41:36.300Z,3.40
2019-02-25T04:42:44.746Z,3.83
2019-02-25T04:43:52.025Z,4.27
2019-02-25T04:44:59.387Z,3.53
2019-02-25T04:46:06.614Z,3.20
2019-02-25T04:47:14.903Z,3.97
2019-02-25T04:48:22.233Z,2.87
2019-02-25T04:49:32.555Z,3.17
2019-02-25T04:50:39.889Z,3.40
2019-02-25T04:51:47.135Z,2.97
2019-02-25T04:52:54.468Z,3.10
2019-02-25T04:54:01.766Z,3.40
2019-02-25T04:55:10.058Z,3.37
2019-02-25T04:56:17.343Z,3.33
2019-02-25T04:57:24.568Z,2.77
2019-02-25T04:58:31.912Z,3.73
2019-02-25T04:59:39.129Z,3.47
2019-02-25T05:00:46.464Z,3.13
2019-02-25T05:01:53.693Z,3.20
2019-02-25T05:03:01.010Z,3.40
2019-02-25T05:04:08.340Z,3.17
2019-02-25T05:05:15.659Z,3.57
2019-02-25T05:06:22.972Z,3.27
2019-02-25T05:07:30.305Z,3.33
2019-02-25T05:08:37.620Z,3.40
2019-02-25T05:09:44.951Z,3.43
2019-02-25T05:10:52.291Z,3.27
2019-02-25T05:11:59.671Z,3.00
2019-02-25T05:13:07.151Z,3.40
2019-02-25T05:14:14.527Z,3.27
2019-02-25T05:15:24.421Z,3.23
2019-02-25T05:16:31.725Z,2.87
2019-02-25T05:17:39.051Z,3.43
2019-02-25T05:18:46.336Z,3.10
2019-02-25T05:19:53.591Z,3.33
2019-02-25T05:21:00.912Z,3.17
2019-02-25T05:22:08.192Z,3.07
2019-02-25T05:23:15.512Z,3.63
2019-02-25T05:24:22.854Z,3.20
2019-02-25T05:25:30.153Z,3.40
2019-02-25T05:26:37.440Z,3.40
2019-02-25T05:27:44.755Z,3.20
2019-02-25T05:28:52.012Z,3.10
2019-02-25T05:30:11.860Z,3.53
2019-02-25T05:31:19.121Z,3.47
2019-02-25T05:32:26.429Z,3.47
2019-02-25T05:33:33.764Z,3.67
2019-02-25T05:34:41.094Z,3.90
2019-02-25T05:35:52.655Z,3.50
2019-02-25T05:36:59.054Z,3.70
2019-02-25T05:38:06.335Z,4.20
2019-02-25T05:39:13.687Z,3.83
2019-02-25T05:40:21.061Z,3.40
2019-02-25T05:41:28.402Z,3.47
2019-02-25T05:42:35.681Z,3.80
2019-02-25T05:43:42.978Z,3.60
2019-02-25T05:44:50.282Z,3.83
2019-02-25T05:45:57.627Z,3.10
2019-02-25T05:47:04.912Z,3.80
2019-02-25T05:48:14.287Z,3.33
2019-02-25T05:49:21.600Z,3.17
2019-02-25T05:50:28.837Z,3.40
2019-02-25T05:51:36.155Z,3.17
2019-02-25T05:52:43.429Z,3.33
2019-02-25T05:53:50.670Z,3.97
2019-02-25T05:54:57.968Z,3.80
2019-02-25T05:56:05.298Z,3.37
2019-02-25T05:57:12.638Z,3.63
2019-02-25T05:58:19.943Z,3.50
2019-02-25T05:59:27.274Z,3.40
2019-02-25T06:00:34.972Z,3.40
2019-02-25T06:01:42.328Z,3.50
2019-02-25T06:02:49.659Z,3.50
2019-02-25T06:03:56.888Z,3.67
2019-02-25T06:05:04.422Z,3.10
2019-02-25T06:06:13.253Z,3.30
2019-02-25T06:07:20.556Z,3.27
2019-02-25T06:08:27.933Z,3.23
2019-02-25T06:09:35.231Z,3.10
2019-02-25T06:10:42.598Z,3.47
2019-02-25T06:11:49.913Z,3.50
2019-02-25T06:12:57.167Z,3.73
2019-02-25T06:14:05.051Z,3.67
2019-02-25T06:15:13.825Z,3.47
2019-02-25T06:16:21.152Z,2.93
2019-02-25T06:17:28.498Z,3.03
2019-02-25T06:18:35.917Z,3.10
2019-02-25T06:19:43.248Z,3.53
2019-02-25T06:20:50.625Z,3.50
2019-02-25T06:21:57.945Z,3.43
2019-02-25T06:23:06.291Z,3.10
2019-02-25T06:24:13.603Z,3.63
2019-02-25T06:25:20.940Z,3.83
2019-02-25T06:26:28.273Z,3.50
2019-02-25T06:27:35.602Z,3.57
2019-02-25T06:28:43.005Z,3.53
2019-02-25T06:29:50.352Z,3.97
2019-02-25T06:30:57.671Z,3.67
2019-02-25T06:32:04.974Z,3.20
2019-02-25T06:33:13.955Z,3.40
2019-02-25T06:34:21.285Z,3.90
2019-02-25T06:35:28.581Z,4.07
2019-02-25T06:36:35.900Z,3.83
2019-02-25T06:37:43.173Z,3.60
2019-02-25T06:38:50.565Z,3.63
2019-02-25T06:39:57.941Z,3.60
2019-02-25T06:41:05.285Z,3.97
2019-02-25T06:42:12.599Z,4.27
2019-02-25T06:43:22.927Z,3.60
2019-02-25T06:44:30.232Z,3.90
2019-02-25T06:45:37.589Z,3.93
2019-02-25T06:46:44.808Z,3.70
2019-02-25T06:47:52.163Z,4.07
2019-02-25T06:48:59.494Z,4.20
2019-02-25T06:50:07.920Z,4.10
2019-02-25T06:51:15.222Z,3.60
2019-02-25T06:52:24.936Z,3.80
2019-02-25T06:53:32.521Z,4.00
2019-02-25T06:54:39.867Z,3.80
2019-02-25T06:55:47.153Z,4.20
2019-02-25T06:57:04.328Z,3.83
2019-02-25T06:58:11.641Z,3.50
2019-02-25T06:59:43.802Z,3.97
2019-02-25T07:00:51.117Z,3.40
2019-02-25T07:02:12.671Z,4.23
2019-02-25T07:03:19.973Z,3.97
2019-02-25T07:04:58.568Z,4.30
2019-02-25T07:06:18.891Z,4.30
2019-02-25T07:07:45.169Z,4.60
2019-02-25T07:09:08.554Z,4.33
2019-02-25T07:12:10.324Z,4.13
2019-02-25T07:13:28.667Z,4.37
2019-02-25T07:14:51.032Z,4.30
2019-02-25T07:16:09.234Z,4.10
2019-02-25T07:17:28.735Z,3.80
2019-02-25T07:18:54.971Z,3.80
2019-02-25T07:20:23.571Z,3.60
2019-02-25T07:23:53.413Z,3.17
2019-02-25T07:26:50.843Z,3.43
2019-02-25T07:28:25.663Z,3.47
2019-02-25T07:29:52.936Z,3.40
2019-02-25T07:32:56.126Z,3.70
2019-02-25T07:34:28.437Z,4.00
2019-02-25T07:35:47.287Z,3.60
2019-02-25T07:39:10.892Z,3.50
2019-02-25T07:40:49.373Z,2.93
2019-02-25T07:42:23.679Z,3.23
2019-02-25T07:43:43.460Z,3.17
2019-02-25T07:45:06.692Z,3.10
2019-02-25T07:46:25.966Z,2.93
2019-02-25T07:47:50.989Z,3.17
2019-02-25T07:49:23.298Z,3.17
2019-02-25T07:50:54.515Z,3.27
2019-02-25T07:52:09.807Z,2.80
2019-02-25T07:53:34.979Z,3.30
2019-02-25T07:55:10.109Z,4.33
2019-02-25T07:56:27.180Z,3.30
2019-02-25T07:57:52.361Z,3.77
2019-02-25T07:59:15.107Z,3.27
2019-02-25T08:00:41.388Z,3.00
2019-02-25T08:01:56.989Z,3.20
2019-02-25T08:03:29.327Z,3.33
2019-02-25T08:04:47.478Z,3.27
2019-02-25T08:06:16.836Z,3.50
2019-02-25T08:07:55.169Z,3.13
2019-02-25T08:09:24.385Z,3.10
2019-02-25T08:10:38.024Z,3.27
2019-02-25T08:12:03.116Z,3.13
2019-02-25T08:13:18.175Z,3.20
2019-02-25T08:14:37.550Z,3.00
2019-02-25T08:16:06.589Z,3.17
2019-02-25T08:17:22.716Z,2.87
2019-02-25T08:18:38.477Z,3.30
2019-02-25T08:20:08.508Z,2.90
2019-02-25T08:21:22.420Z,3.40
2019-02-25T08:22:42.506Z,2.97
2019-02-25T08:23:58.389Z,3.20
2019-02-25T08:25:33.025Z,3.07
2019-02-25T08:26:48.904Z,3.30
2019-02-25T08:28:06.931Z,3.70
2019-02-25T08:29:28.950Z,3.40
2019-02-25T08:30:55.169Z,3.00
2019-02-25T08:32:22.309Z,3.83
2019-02-25T08:33:48.495Z,4.07
2019-02-25T08:35:13.429Z,3.93
2019-02-25T08:37:27.789Z,3.17
2019-02-25T08:38:57.168Z,3.50
2019-02-25T08:41:19.826Z,3.60
2019-02-25T08:42:52.228Z,3.17
2019-02-25T08:44:16.931Z,2.73
2019-02-25T08:45:35.229Z,3.33
2019-02-25T08:48:27.102Z,2.70
2019-02-25T08:49:37.820Z,3.27
2019-02-25T08:50:45.110Z,3.10
2019-02-25T08:51:53.384Z,3.40
2019-02-25T08:53:01.705Z,3.07
2019-02-25T08:54:09.005Z,3.00
2019-02-25T08:55:16.341Z,2.70
2019-02-25T08:56:23.627Z,2.73
2019-02-25T08:57:31.917Z,2.40
2019-02-25T08:58:39.200Z,3.00
2019-02-25T08:59:46.518Z,3.40
2019-02-25T09:00:53.791Z,2.70
2019-02-25T09:02:01.104Z,2.90
2019-02-25T09:03:08.489Z,3.33
2019-02-25T09:04:15.797Z,2.77
2019-02-25T09:05:23.066Z,2.60
2019-02-25T09:06:30.384Z,2.77
2019-02-25T09:07:37.692Z,3.40
2019-02-25T09:08:44.975Z,3.10
2019-02-25T09:09:52.290Z,3.30
2019-02-25T09:10:59.604Z,3.17
2019-02-25T09:12:06.968Z,2.90
2019-02-25T09:13:17.900Z,2.60
2019-02-25T09:14:28.251Z,3.07
2019-02-25T09:15:35.582Z,2.80
2019-02-25T09:16:42.940Z,3.07
2019-02-25T09:17:47.764Z,2.70
2019-02-25T09:18:54.991Z,2.30
2019-02-25T09:20:03.913Z,2.50
2019-02-25T09:21:11.253Z,3.00
2019-02-25T09:22:18.632Z,2.50
2019-02-25T09:23:25.960Z,2.93
2019-02-25T09:24:33.250Z,2.53
2019-02-25T09:25:40.553Z,2.50
2019-02-25T09:26:47.873Z,2.70
2019-02-25T09:27:55.214Z,2.97
2019-02-25T09:29:02.563Z,2.70
2019-02-25T09:30:14.671Z,3.17
2019-02-25T09:31:22.038Z,2.70
2019-02-25T09:32:29.382Z,3.03
2019-02-25T09:33:36.773Z,3.07
2019-02-25T09:34:44.194Z,3.10
2019-02-25T09:35:51.497Z,2.87
2019-02-25T09:36:58.831Z,3.53
2019-02-25T09:38:06.174Z,3.00
2019-02-25T09:39:16.674Z,3.10
2019-02-25T09:40:23.674Z,2.53
2019-02-25T09:41:31.009Z,2.70
2019-02-25T09:42:38.330Z,2.97
2019-02-25T09:43:45.666Z,3.30
2019-02-25T09:44:53.002Z,2.90
2019-02-25T09:46:00.309Z,2.80
2019-02-25T09:47:07.632Z,2.90
2019-02-25T09:48:14.856Z,3.00
2019-02-25T09:49:22.170Z,2.37
2019-02-25T09:50:29.441Z,2.90
2019-02-25T09:51:36.741Z,2.60
2019-02-25T09:52:44.059Z,2.80
2019-02-25T09:53:51.386Z,2.90
2019-02-25T09:54:58.688Z,3.43
2019-02-25T09:56:05.988Z,3.30
2019-02-25T09:57:13.303Z,2.73
2019-02-25T09:58:20.624Z,3.20
2019-02-25T09:59:27.871Z,2.90
2019-02-25T10:00:35.396Z,3.10
2019-02-25T10:01:42.705Z,3.10
2019-02-25T10:02:51.094Z,2.73
2019-02-25T10:03:58.404Z,3.43
2019-02-25T10:05:06.387Z,3.30
2019-02-25T10:06:13.786Z,3.40
2019-02-25T10:07:21.128Z,3.00
2019-02-25T10:08:28.429Z,3.10
2019-02-25T10:09:35.759Z,3.47
2019-02-25T10:10:43.063Z,2.90
2019-02-25T10:11:50.377Z,3.10
2019-02-25T10:12:57.696Z,3.00
2019-02-25T10:14:04.993Z,3.47
2019-02-25T10:15:14.157Z,2.90
2019-02-25T10:16:21.548Z,3.17
2019-02-25T10:17:28.878Z,3.40
2019-02-25T10:18:36.372Z,2.80
2019-02-25T10:19:43.719Z,3.67
2019-02-25T10:20:51.065Z,3.13
2019-02-25T10:21:58.336Z,2.90
2019-02-25T10:23:06.734Z,3.43
2019-02-25T10:24:14.155Z,3.33
2019-02-25T10:25:21.486Z,3.20
2019-02-25T10:26:28.810Z,3.20
2019-02-25T10:27:36.135Z,3.30
2019-02-25T10:28:43.522Z,3.53
2019-02-25T10:29:50.868Z,3.20
2019-02-25T10:30:58.187Z,3.47
2019-02-25T10:32:06.556Z,3.17
2019-02-25T10:33:14.093Z,3.10
2019-02-25T10:34:21.410Z,3.60
2019-02-25T10:35:28.782Z,3.60
2019-02-25T10:36:36.093Z,3.90
2019-02-25T10:37:43.848Z,3.50
2019-02-25T10:38:51.230Z,3.40
2019-02-25T10:39:58.541Z,3.57
2019-02-25T10:41:05.920Z,3.57
2019-02-25T10:42:13.236Z,3.37
2019-02-25T10:43:20.568Z,3.27
2019-02-25T10:44:29.437Z,3.37
2019-02-25T10:45:38.921Z,3.00
2019-02-25T10:46:47.024Z,3.10
2019-02-25T10:47:58.419Z,3.27
2019-02-25T10:49:11.120Z,3.50
2019-02-25T10:50:13.721Z,3.23
2019-02-25T10:51:21.069Z,3.63
2019-02-25T10:52:28.393Z,3.43
2019-02-25T10:53:35.694Z,3.10
2019-02-25T10:54:43.001Z,2.90
2019-02-25T10:56:07.343Z,3.20
2019-02-25T10:57:21.975Z,3.00
2019-02-25T10:58:31.152Z,3.27
2019-02-25T10:59:41.424Z,3.30
2019-02-25T11:00:48.245Z,3.47
2019-02-25T11:01:55.536Z,3.57
2019-02-25T11:03:02.898Z,3.13
2019-02-25T11:04:10.211Z,3.17
2019-02-25T11:05:19.007Z,3.07
2019-02-25T11:06:27.398Z,3.50
2019-02-25T11:07:37.402Z,3.07
2019-02-25T11:08:48.387Z,3.00
2019-02-25T11:10:14.004Z,3.00
2019-02-25T11:11:27.192Z,2.83
2019-02-25T11:12:34.699Z,2.70
2019-02-25T11:13:42.034Z,3.10
2019-02-25T11:14:49.365Z,3.20
2019-02-25T11:15:56.674Z,2.97
2019-02-25T11:17:04.383Z,3.23
2019-02-25T11:18:11.710Z,3.23
2019-02-25T11:19:19.045Z,3.50
2019-02-25T11:20:27.332Z,3.27
2019-02-25T11:21:37.523Z,2.90
2019-02-25T11:22:46.191Z,3.00
2019-02-25T11:23:54.655Z,2.97
2019-02-25T11:25:02.001Z,2.80
2019-02-25T11:26:09.554Z,2.70
2019-02-25T11:27:16.920Z,3.00
2019-02-25T11:28:26.077Z,3.10
2019-02-25T11:29:33.255Z,2.90
2019-02-25T11:30:40.591Z,3.47
2019-02-25T11:31:49.510Z,3.10
2019-02-25T11:32:59.490Z,2.90
2019-02-25T11:34:08.005Z,3.10
2019-02-25T11:35:16.335Z,3.23
2019-02-25T11:36:23.683Z,3.00
2019-02-25T11:37:30.983Z,2.70
2019-02-25T11:38:38.402Z,2.90
2019-02-25T11:39:45.736Z,3.40
2019-02-25T11:40:53.032Z,3.00
2019-02-25T11:42:00.804Z,3.07
2019-02-25T11:43:10.128Z,2.90
2019-02-25T11:44:18.863Z,3.00
2019-02-25T11:45:27.237Z,2.73
2019-02-25T11:46:34.732Z,3.20
2019-02-25T11:47:45.571Z,3.03
2019-02-25T11:48:52.929Z,3.40
2019-02-25T11:50:00.350Z,3.30
2019-02-25T11:51:07.638Z,3.20
2019-02-25T11:52:14.956Z,3.40
2019-02-25T11:53:22.181Z,4.80
2019-02-25T11:54:29.511Z,3.30
2019-02-25T11:55:36.980Z,3.00
2019-02-25T11:56:44.260Z,2.97
2019-02-25T11:57:51.579Z,3.20
2019-02-25T11:58:58.896Z,4.07
2019-02-25T12:00:18.212Z,4.10
2019-02-25T12:01:25.741Z,3.20
2019-02-25T12:02:33.054Z,3.73
2019-02-25T12:03:40.446Z,4.43
2019-02-25T12:04:48.486Z,3.80
2019-02-25T12:05:55.977Z,2.80
2019-02-25T12:07:03.410Z,2.70
2019-02-25T12:08:10.726Z,2.60
2019-02-25T12:09:18.057Z,2.63
2019-02-25T12:10:25.653Z,2.53
2019-02-25T12:11:32.989Z,2.60
2019-02-25T12:12:40.331Z,2.60
2019-02-25T12:13:47.639Z,2.70
2019-02-25T12:14:55.059Z,2.73
2019-02-25T12:16:04.464Z,2.80
2019-02-25T12:17:12.940Z,2.50
2019-02-25T12:18:21.510Z,2.73
2019-02-25T12:19:29.857Z,2.57
2019-02-25T12:20:38.342Z,2.53
2019-02-25T12:21:47.125Z,2.60
2019-02-25T12:22:55.611Z,2.50
2019-02-25T12:24:04.182Z,2.10
2019-02-25T12:25:14.116Z,2.10
2019-02-25T12:26:22.442Z,1.87
2019-02-25T12:27:32.899Z,2.33
2019-02-25T12:28:41.213Z,2.10
2019-02-25T12:29:49.631Z,2.40
2019-02-25T12:30:58.175Z,2.27
2019-02-25T12:32:06.692Z,2.00
2019-02-25T12:33:15.116Z,2.67
2019-02-25T12:34:23.553Z,2.23
2019-02-25T12:35:31.712Z,2.47
2019-02-25T12:36:40.315Z,2.27
2019-02-25T12:37:49.066Z,2.50
2019-02-25T12:38:57.687Z,2.30
2019-02-25T12:40:06.781Z,2.40
2019-02-25T12:41:15.315Z,2.30
2019-02-25T12:42:23.843Z,2.30
2019-02-25T12:43:32.191Z,2.47
2019-02-25T12:44:40.577Z,2.60
2019-02-25T12:45:49.142Z,2.17
2019-02-25T12:46:57.371Z,2.40
2019-02-25T12:48:05.843Z,2.17
2019-02-25T12:49:14.257Z,2.07
2019-02-25T12:50:22.664Z,2.00
2019-02-25T12:51:31.130Z,2.27
2019-02-25T12:52:39.691Z,1.93
2019-02-25T12:53:48.152Z,2.13
2019-02-25T12:54:56.627Z,1.83
2019-02-25T12:56:05.135Z,2.53
2019-02-25T12:57:13.826Z,2.70
2019-02-25T12:58:22.381Z,2.37
2019-02-25T12:59:30.625Z,2.20
2019-02-25T13:00:38.876Z,2.37
2019-02-25T13:01:47.253Z,2.10
2019-02-25T13:02:55.542Z,2.43
2019-02-25T13:04:03.996Z,2.30
2019-02-25T13:05:14.688Z,2.30
2019-02-25T13:06:24.061Z,2.60
2019-02-25T13:07:32.443Z,2.30
2019-02-25T13:08:40.885Z,2.70
2019-02-25T13:09:49.144Z,2.77
2019-02-25T13:10:57.453Z,2.90
2019-02-25T13:12:05.592Z,2.37
2019-02-25T13:13:13.850Z,2.30
2019-02-25T13:14:25.569Z,2.90
2019-02-25T13:15:33.887Z,2.30
2019-02-25T13:16:42.150Z,2.37
2019-02-25T13:17:50.562Z,2.50
2019-02-25T13:18:59.046Z,2.37
2019-02-25T13:20:07.995Z,2.27
2019-02-25T13:21:16.433Z,2.07
2019-02-25T13:22:24.684Z,2.17
2019-02-25T13:23:34.500Z,2.40
2019-02-25T13:24:43.665Z,2.23
2019-02-25T13:25:52.046Z,2.57
2019-02-25T13:27:01.025Z,2.50
2019-02-25T13:28:10.861Z,2.40
2019-02-25T13:29:19.046Z,2.47
2019-02-25T13:30:27.533Z,2.63
2019-02-25T13:31:35.743Z,2.63
2019-02-25T13:32:46.104Z,2.40
2019-02-25T13:33:54.486Z,2.20
2019-02-25T13:35:02.828Z,2.57
2019-02-25T13:36:14.989Z,2.77
2019-02-25T13:37:23.355Z,2.40
2019-02-25T13:38:34.948Z,2.37
2019-02-25T13:39:43.481Z,2.67
2019-02-25T13:40:51.904Z,2.73
2019-02-25T13:42:00.361Z,2.73
2019-02-25T13:43:08.786Z,2.80
2019-02-25T13:44:17.009Z,2.53
2019-02-25T13:45:25.450Z,2.53
2019-02-25T13:46:33.974Z,2.53
2019-02-25T13:47:42.434Z,2.70
2019-02-25T13:48:50.780Z,2.40
2019-02-25T13:49:58.961Z,2.70
2019-02-25T13:51:07.309Z,2.60
2019-02-25T13:52:15.624Z,2.03
2019-02-25T13:53:25.016Z,2.53
2019-02-25T13:54:33.170Z,2.40
2019-02-25T13:55:41.609Z,2.90
2019-02-25T13:56:52.950Z,2.80
2019-02-25T13:58:01.106Z,2.53
2019-02-25T13:59:13.691Z,2.70
2019-02-25T14:00:22.174Z,2.57
2019-02-25T14:01:30.855Z,2.60
2019-02-25T14:02:39.177Z,2.40
2019-02-25T14:03:50.846Z,2.63
2019-02-25T14:04:59.223Z,2.47
2019-02-25T14:06:16.836Z,2.13
2019-02-25T14:07:25.152Z,2.33
2019-02-25T14:08:36.461Z,2.40
2019-02-25T14:09:45.015Z,2.47
2019-02-25T14:10:53.421Z,2.77
2019-02-25T14:12:01.817Z,2.60
2019-02-25T14:13:10.254Z,2.50
2019-02-25T14:14:18.690Z,2.50
2019-02-25T14:15:29.989Z,2.50
2019-02-25T14:16:39.358Z,2.67
2019-02-25T14:18:24.208Z,2.30
2019-02-25T14:19:32.769Z,2.50
2019-02-25T14:20:41.077Z,2.67
2019-02-25T14:21:49.518Z,2.20
2019-02-25T14:23:00.664Z,2.57
2019-02-25T14:24:09.340Z,2.40
2019-02-25T14:25:25.896Z,2.30
2019-02-25T14:26:34.528Z,2.20
2019-02-25T14:27:47.186Z,2.70
2019-02-25T14:28:55.530Z,2.70
2019-02-25T14:30:04.188Z,2.40
2019-02-25T14:31:13.982Z,2.30
2019-02-25T14:32:36.253Z,2.20
2019-02-25T14:33:44.859Z,2.27
2019-02-25T14:35:09.476Z,2.47
2019-02-25T14:36:19.878Z,2.30
2019-02-25T14:37:29.195Z,2.57
2019-02-25T14:38:54.647Z,2.53
2019-02-25T14:40:05.999Z,2.60
2019-02-25T14:41:16.152Z,2.17
2019-02-25T14:42:26.042Z,2.63
2019-02-25T14:43:46.186Z,2.37
2019-02-25T14:44:52.231Z,2.60
2019-02-25T14:46:01.602Z,2.50
2019-02-25T14:47:20.466Z,2.10
2019-02-25T14:48:22.852Z,2.17
2019-02-25T14:49:32.747Z,2.43
2019-02-25T14:50:40.958Z,2.63
2019-02-25T14:51:49.583Z,2.40
2019-02-25T14:52:57.985Z,2.20
2019-02-25T14:54:08.117Z,2.53
2019-02-25T15:36:17.779Z,2.07
2019-02-25T15:37:27.836Z,2.37
2019-02-25T15:38:54.982Z,2.20
2019-02-25T15:40:09.718Z,2.80
2019-02-25T15:41:17.893Z,3.43
2019-02-25T15:42:26.082Z,3.50
2019-02-25T15:43:35.404Z,3.10
2019-02-25T15:44:44.518Z,2.73
2019-02-25T15:45:54.148Z,3.47
2019-02-25T15:47:08.256Z,2.93
2019-02-25T15:48:19.863Z,2.60
2019-02-25T15:49:28.984Z,2.50
2019-02-25T15:50:44.063Z,2.70
2019-02-25T15:51:53.787Z,2.87
2019-02-25T15:53:03.343Z,2.90
2019-02-25T15:54:14.430Z,2.60
2019-02-25T15:55:25.535Z,2.73
2019-02-25T15:56:33.612Z,3.30
2019-02-25T15:57:41.671Z,2.93
2019-02-25T15:58:49.905Z,3.00
2019-02-25T15:59:57.845Z,3.10
2019-02-25T16:01:05.693Z,2.63
2019-02-25T16:02:16.193Z,2.90
2019-02-25T16:03:27.413Z,2.70
2019-02-25T16:04:38.287Z,2.70
2019-02-25T16:05:52.279Z,3.13
2019-02-25T16:07:00.009Z,3.00
2019-02-25T16:08:10.324Z,2.80
2019-02-25T16:09:25.078Z,3.30
2019-02-25T16:10:31.573Z,3.30
2019-02-25T16:11:41.451Z,3.30
2019-02-25T16:12:51.209Z,3.40
2019-02-25T16:14:02.937Z,3.20
2019-02-25T16:15:17.411Z,3.40
2019-02-25T16:16:27.151Z,3.50
2019-02-25T16:17:37.620Z,3.40
2019-02-25T16:18:46.288Z,3.50
2019-02-25T16:19:55.828Z,3.20
2019-02-25T16:21:05.237Z,3.83
2019-02-25T16:22:14.286Z,3.33
2019-02-25T16:23:23.195Z,3.30
2019-02-25T16:24:30.988Z,3.13
2019-02-25T16:25:39.975Z,3.23
2019-02-25T16:26:48.759Z,3.23
2019-02-25T16:27:56.831Z,3.60
2019-02-25T16:29:08.927Z,3.17